sensor_id;sensor_type;location;lat;lon;timestamp;P1;durP1;ratioP1;P2;durP2;ratioP2
11711;SDS011;5912;51.034;6.984;2022-07-23T00:00:47;15.45;;;11.38;;
11711;SDS011;5912;51.034;6.984;2022-07-23T00:03:13;16.98;;;11.48;;
11711;SDS011;5912;51.034;6.984;2022-07-23T00:05:38;15.85;;;12.43;;
11711;SDS011;5912;51.034;6.984;2022-07-23T00:08:04;17.35;;;12.80;;
11711;SDS011;5912;51.034;6.984;2022-07-23T00:10:30;16.70;;;11.05;;
11711;SDS011;5912;51.034;6.984;2022-07-23T00:12:56;17.92;;;11.32;;
11711;SDS011;5912;51.034;6.984;2022-07-23T00:15:21;16.25;;;11.52;;
11711;SDS011;5912;51.034;6.984;2022-07-23T00:17:46;15.88;;;11.38;;
11711;SDS011;5912;51.034;6.984;2022-07-23T00:20:12;11.90;;;9.45;;
11711;SDS011;5912;51.034;6.984;2022-07-23T00:22:45;9.75;;;8.68;;
11711;SDS011;5912;51.034;6.984;2022-07-23T00:25:12;12.45;;;9.65;;
11711;SDS011;5912;51.034;6.984;2022-07-23T00:27:38;12.98;;;8.43;;
11711;SDS011;5912;51.034;6.984;2022-07-23T00:30:03;9.85;;;7.50;;
11711;SDS011;5912;51.034;6.984;2022-07-23T00:32:29;12.52;;;8.77;;
11711;SDS011;5912;51.034;6.984;2022-07-23T00:34:54;10.57;;;7.35;;
11711;SDS011;5912;51.034;6.984;2022-07-23T00:37:20;10.55;;;8.18;;
11711;SDS011;5912;51.034;6.984;2022-07-23T00:39:45;10.48;;;7.90;;
11711;SDS011;5912;51.034;6.984;2022-07-23T00:42:11;11.65;;;9.38;;
11711;SDS011;5912;51.034;6.984;2022-07-23T00:44:36;12.52;;;9.02;;
11711;SDS011;5912;51.034;6.984;2022-07-23T00:47:01;10.45;;;8.45;;
11711;SDS011;5912;51.034;6.984;2022-07-23T00:49:27;11.93;;;8.90;;
11711;SDS011;5912;51.034;6.984;2022-07-23T00:51:54;10.57;;;8.23;;
11711;SDS011;5912;51.034;6.984;2022-07-23T00:54:21;15.65;;;11.40;;
11711;SDS011;5912;51.034;6.984;2022-07-23T00:56:48;15.48;;;11.48;;
11711;SDS011;5912;51.034;6.984;2022-07-23T00:59:14;18.40;;;11.57;;
11711;SDS011;5912;51.034;6.984;2022-07-23T01:01:40;16.52;;;11.85;;
11711;SDS011;5912;51.034;6.984;2022-07-23T01:04:06;16.40;;;11.30;;
11711;SDS011;5912;51.034;6.984;2022-07-23T01:06:36;14.98;;;10.18;;
11711;SDS011;5912;51.034;6.984;2022-07-23T01:09:03;13.13;;;10.05;;
11711;SDS011;5912;51.034;6.984;2022-07-23T01:11:30;20.20;;;13.23;;
11711;SDS011;5912;51.034;6.984;2022-07-23T01:13:57;16.15;;;11.48;;
11711;SDS011;5912;51.034;6.984;2022-07-23T01:16:23;16.00;;;10.60;;
11711;SDS011;5912;51.034;6.984;2022-07-23T01:18:48;15.38;;;10.60;;
11711;SDS011;5912;51.034;6.984;2022-07-23T01:21:14;14.43;;;10.05;;
11711;SDS011;5912;51.034;6.984;2022-07-23T01:23:43;13.95;;;9.88;;
11711;SDS011;5912;51.034;6.984;2022-07-23T01:26:08;14.68;;;10.15;;
11711;SDS011;5912;51.034;6.984;2022-07-23T01:28:34;14.23;;;10.18;;
11711;SDS011;5912;51.034;6.984;2022-07-23T01:30:59;11.85;;;9.05;;
11711;SDS011;5912;51.034;6.984;2022-07-23T01:33:24;13.35;;;9.20;;
11711;SDS011;5912;51.034;6.984;2022-07-23T01:35:49;13.15;;;8.90;;
11711;SDS011;5912;51.034;6.984;2022-07-23T01:38:15;14.05;;;9.10;;
11711;SDS011;5912;51.034;6.984;2022-07-23T01:40:40;14.95;;;9.82;;
11711;SDS011;5912;51.034;6.984;2022-07-23T01:43:06;13.18;;;9.18;;
11711;SDS011;5912;51.034;6.984;2022-07-23T01:45:31;12.38;;;9.07;;
11711;SDS011;5912;51.034;6.984;2022-07-23T01:47:56;10.10;;;8.63;;
11711;SDS011;5912;51.034;6.984;2022-07-23T01:50:21;12.68;;;8.90;;
11711;SDS011;5912;51.034;6.984;2022-07-23T01:52:47;11.13;;;8.90;;
11711;SDS011;5912;51.034;6.984;2022-07-23T01:55:15;11.85;;;8.68;;
11711;SDS011;5912;51.034;6.984;2022-07-23T01:57:40;12.63;;;8.55;;
11711;SDS011;5912;51.034;6.984;2022-07-23T02:00:06;10.05;;;8.40;;
11711;SDS011;5912;51.034;6.984;2022-07-23T02:02:32;11.15;;;8.55;;
11711;SDS011;5912;51.034;6.984;2022-07-23T02:04:57;12.45;;;8.85;;
11711;SDS011;5912;51.034;6.984;2022-07-23T02:07:22;9.07;;;7.97;;
11711;SDS011;5912;51.034;6.984;2022-07-23T02:09:47;11.60;;;8.50;;
11711;SDS011;5912;51.034;6.984;2022-07-23T02:12:13;11.85;;;8.77;;
11711;SDS011;5912;51.034;6.984;2022-07-23T02:14:38;12.82;;;8.45;;
11711;SDS011;5912;51.034;6.984;2022-07-23T02:17:04;11.32;;;7.72;;
11711;SDS011;5912;51.034;6.984;2022-07-23T02:19:29;10.90;;;8.25;;
11711;SDS011;5912;51.034;6.984;2022-07-23T02:21:55;14.07;;;9.25;;
11711;SDS011;5912;51.034;6.984;2022-07-23T02:24:21;10.68;;;8.68;;
11711;SDS011;5912;51.034;6.984;2022-07-23T02:26:46;14.20;;;9.77;;
11711;SDS011;5912;51.034;6.984;2022-07-23T02:29:12;13.25;;;9.48;;
11711;SDS011;5912;51.034;6.984;2022-07-23T02:31:37;11.40;;;8.77;;
11711;SDS011;5912;51.034;6.984;2022-07-23T02:34:03;14.38;;;8.48;;
11711;SDS011;5912;51.034;6.984;2022-07-23T02:36:28;11.68;;;8.57;;
11711;SDS011;5912;51.034;6.984;2022-07-23T02:38:54;11.20;;;9.07;;
11711;SDS011;5912;51.034;6.984;2022-07-23T02:41:19;10.88;;;8.15;;
11711;SDS011;5912;51.034;6.984;2022-07-23T02:43:44;11.05;;;8.43;;
11711;SDS011;5912;51.034;6.984;2022-07-23T02:46:10;13.90;;;9.32;;
11711;SDS011;5912;51.034;6.984;2022-07-23T02:48:35;15.38;;;9.52;;
11711;SDS011;5912;51.034;6.984;2022-07-23T02:51:00;13.82;;;10.20;;
11711;SDS011;5912;51.034;6.984;2022-07-23T02:53:26;14.40;;;10.35;;
11711;SDS011;5912;51.034;6.984;2022-07-23T02:55:51;12.88;;;10.85;;
11711;SDS011;5912;51.034;6.984;2022-07-23T02:58:17;12.07;;;9.02;;
11711;SDS011;5912;51.034;6.984;2022-07-23T03:00:42;13.65;;;10.15;;
11711;SDS011;5912;51.034;6.984;2022-07-23T03:03:08;12.27;;;8.80;;
11711;SDS011;5912;51.034;6.984;2022-07-23T03:05:33;14.20;;;10.13;;
11711;SDS011;5912;51.034;6.984;2022-07-23T03:07:59;15.07;;;10.65;;
11711;SDS011;5912;51.034;6.984;2022-07-23T03:10:24;13.07;;;9.60;;
11711;SDS011;5912;51.034;6.984;2022-07-23T03:12:50;14.15;;;9.90;;
11711;SDS011;5912;51.034;6.984;2022-07-23T03:15:15;13.13;;;10.05;;
11711;SDS011;5912;51.034;6.984;2022-07-23T03:17:41;15.10;;;10.77;;
11711;SDS011;5912;51.034;6.984;2022-07-23T03:20:06;14.20;;;10.25;;
11711;SDS011;5912;51.034;6.984;2022-07-23T03:22:32;14.30;;;10.38;;
11711;SDS011;5912;51.034;6.984;2022-07-23T03:24:58;15.48;;;10.85;;
11711;SDS011;5912;51.034;6.984;2022-07-23T03:27:23;15.13;;;11.05;;
11711;SDS011;5912;51.034;6.984;2022-07-23T03:29:50;14.20;;;10.63;;
11711;SDS011;5912;51.034;6.984;2022-07-23T03:32:17;18.02;;;11.63;;
11711;SDS011;5912;51.034;6.984;2022-07-23T03:34:42;15.63;;;10.57;;
11711;SDS011;5912;51.034;6.984;2022-07-23T03:37:09;15.93;;;11.00;;
11711;SDS011;5912;51.034;6.984;2022-07-23T03:39:34;17.45;;;12.85;;
11711;SDS011;5912;51.034;6.984;2022-07-23T03:42:00;16.25;;;11.65;;
11711;SDS011;5912;51.034;6.984;2022-07-23T03:44:26;14.95;;;10.93;;
11711;SDS011;5912;51.034;6.984;2022-07-23T03:46:51;15.23;;;10.43;;
11711;SDS011;5912;51.034;6.984;2022-07-23T03:49:16;16.67;;;11.27;;
11711;SDS011;5912;51.034;6.984;2022-07-23T03:51:42;15.63;;;11.10;;
11711;SDS011;5912;51.034;6.984;2022-07-23T03:54:07;16.25;;;11.82;;
11711;SDS011;5912;51.034;6.984;2022-07-23T03:56:32;16.23;;;11.10;;
11711;SDS011;5912;51.034;6.984;2022-07-23T03:58:58;17.80;;;12.18;;
11711;SDS011;5912;51.034;6.984;2022-07-23T04:01:23;16.95;;;12.38;;
11711;SDS011;5912;51.034;6.984;2022-07-23T04:03:48;15.80;;;11.38;;
11711;SDS011;5912;51.034;6.984;2022-07-23T04:06:14;20.08;;;12.23;;
11711;SDS011;5912;51.034;6.984;2022-07-23T04:08:39;16.35;;;10.85;;
11711;SDS011;5912;51.034;6.984;2022-07-23T04:11:04;16.13;;;10.88;;
11711;SDS011;5912;51.034;6.984;2022-07-23T04:13:30;16.60;;;10.93;;
11711;SDS011;5912;51.034;6.984;2022-07-23T04:15:57;19.73;;;12.30;;
11711;SDS011;5912;51.034;6.984;2022-07-23T04:18:22;17.75;;;11.77;;
11711;SDS011;5912;51.034;6.984;2022-07-23T04:20:48;13.15;;;9.70;;
11711;SDS011;5912;51.034;6.984;2022-07-23T04:23:15;13.35;;;9.43;;
11711;SDS011;5912;51.034;6.984;2022-07-23T04:25:40;13.73;;;9.35;;
11711;SDS011;5912;51.034;6.984;2022-07-23T04:28:05;14.25;;;9.63;;
11711;SDS011;5912;51.034;6.984;2022-07-23T04:30:31;11.90;;;8.43;;
11711;SDS011;5912;51.034;6.984;2022-07-23T04:32:56;15.73;;;10.52;;
11711;SDS011;5912;51.034;6.984;2022-07-23T04:35:22;17.95;;;11.60;;
11711;SDS011;5912;51.034;6.984;2022-07-23T04:37:47;16.20;;;11.18;;
11711;SDS011;5912;51.034;6.984;2022-07-23T04:40:12;14.07;;;9.32;;
11711;SDS011;5912;51.034;6.984;2022-07-23T04:42:38;12.25;;;9.18;;
11711;SDS011;5912;51.034;6.984;2022-07-23T04:45:04;15.57;;;10.80;;
11711;SDS011;5912;51.034;6.984;2022-07-23T04:47:30;13.68;;;10.07;;
11711;SDS011;5912;51.034;6.984;2022-07-23T04:49:56;13.50;;;9.00;;
11711;SDS011;5912;51.034;6.984;2022-07-23T04:52:21;12.57;;;9.52;;
11711;SDS011;5912;51.034;6.984;2022-07-23T04:54:47;13.05;;;9.40;;
11711;SDS011;5912;51.034;6.984;2022-07-23T04:57:12;13.20;;;9.10;;
11711;SDS011;5912;51.034;6.984;2022-07-23T04:59:37;15.60;;;10.27;;
11711;SDS011;5912;51.034;6.984;2022-07-23T05:02:03;12.93;;;8.45;;
11711;SDS011;5912;51.034;6.984;2022-07-23T05:04:28;11.88;;;8.40;;
11711;SDS011;5912;51.034;6.984;2022-07-23T05:06:53;11.57;;;8.73;;
11711;SDS011;5912;51.034;6.984;2022-07-23T05:09:19;13.27;;;9.02;;
11711;SDS011;5912;51.034;6.984;2022-07-23T05:11:44;15.30;;;8.70;;
11711;SDS011;5912;51.034;6.984;2022-07-23T05:14:09;12.75;;;8.68;;
11711;SDS011;5912;51.034;6.984;2022-07-23T05:16:37;12.77;;;8.32;;
11711;SDS011;5912;51.034;6.984;2022-07-23T05:19:03;15.35;;;9.50;;
11711;SDS011;5912;51.034;6.984;2022-07-23T05:21:28;11.75;;;8.75;;
11711;SDS011;5912;51.034;6.984;2022-07-23T05:23:53;10.45;;;8.02;;
11711;SDS011;5912;51.034;6.984;2022-07-23T05:26:19;11.77;;;8.77;;
11711;SDS011;5912;51.034;6.984;2022-07-23T05:28:44;11.32;;;7.57;;
11711;SDS011;5912;51.034;6.984;2022-07-23T05:31:09;10.35;;;7.43;;
11711;SDS011;5912;51.034;6.984;2022-07-23T05:33:35;12.85;;;8.50;;
11711;SDS011;5912;51.034;6.984;2022-07-23T05:36:03;13.05;;;8.52;;
11711;SDS011;5912;51.034;6.984;2022-07-23T05:38:29;12.20;;;8.50;;
11711;SDS011;5912;51.034;6.984;2022-07-23T05:40:56;12.63;;;8.45;;
11711;SDS011;5912;51.034;6.984;2022-07-23T05:43:21;12.18;;;8.45;;
11711;SDS011;5912;51.034;6.984;2022-07-23T05:45:47;8.80;;;7.68;;
11711;SDS011;5912;51.034;6.984;2022-07-23T05:48:12;10.30;;;8.32;;
11711;SDS011;5912;51.034;6.984;2022-07-23T05:50:37;11.25;;;8.15;;
11711;SDS011;5912;51.034;6.984;2022-07-23T05:53:03;11.00;;;8.07;;
11711;SDS011;5912;51.034;6.984;2022-07-23T05:55:28;10.95;;;7.80;;
11711;SDS011;5912;51.034;6.984;2022-07-23T05:57:56;10.48;;;8.40;;
11711;SDS011;5912;51.034;6.984;2022-07-23T06:00:22;15.68;;;10.13;;
11711;SDS011;5912;51.034;6.984;2022-07-23T06:02:47;14.25;;;8.43;;
11711;SDS011;5912;51.034;6.984;2022-07-23T06:05:12;13.30;;;9.25;;
11711;SDS011;5912;51.034;6.984;2022-07-23T06:07:37;12.45;;;7.75;;
11711;SDS011;5912;51.034;6.984;2022-07-23T06:10:03;12.00;;;8.57;;
11711;SDS011;5912;51.034;6.984;2022-07-23T06:12:29;11.90;;;8.43;;
11711;SDS011;5912;51.034;6.984;2022-07-23T06:14:54;12.95;;;8.88;;
11711;SDS011;5912;51.034;6.984;2022-07-23T06:17:20;13.45;;;9.75;;
11711;SDS011;5912;51.034;6.984;2022-07-23T06:19:45;14.35;;;9.80;;
11711;SDS011;5912;51.034;6.984;2022-07-23T06:22:10;14.52;;;10.23;;
11711;SDS011;5912;51.034;6.984;2022-07-23T06:24:36;16.45;;;10.00;;
11711;SDS011;5912;51.034;6.984;2022-07-23T06:27:01;11.85;;;7.90;;
11711;SDS011;5912;51.034;6.984;2022-07-23T06:29:26;12.38;;;7.97;;
11711;SDS011;5912;51.034;6.984;2022-07-23T06:31:52;15.77;;;9.90;;
11711;SDS011;5912;51.034;6.984;2022-07-23T06:34:17;14.60;;;10.00;;
11711;SDS011;5912;51.034;6.984;2022-07-23T06:36:42;12.60;;;8.77;;
11711;SDS011;5912;51.034;6.984;2022-07-23T06:39:08;9.45;;;7.70;;
11711;SDS011;5912;51.034;6.984;2022-07-23T06:41:33;13.73;;;8.30;;
11711;SDS011;5912;51.034;6.984;2022-07-23T06:43:58;11.18;;;8.63;;
11711;SDS011;5912;51.034;6.984;2022-07-23T06:46:23;10.98;;;7.30;;
11711;SDS011;5912;51.034;6.984;2022-07-23T06:48:50;10.02;;;6.40;;
11711;SDS011;5912;51.034;6.984;2022-07-23T06:51:15;7.68;;;5.80;;
11711;SDS011;5912;51.034;6.984;2022-07-23T06:53:40;8.77;;;6.63;;
11711;SDS011;5912;51.034;6.984;2022-07-23T06:56:06;6.80;;;5.40;;
11711;SDS011;5912;51.034;6.984;2022-07-23T06:58:31;9.02;;;6.78;;
11711;SDS011;5912;51.034;6.984;2022-07-23T07:00:57;6.22;;;5.00;;
11711;SDS011;5912;51.034;6.984;2022-07-23T07:03:22;7.55;;;5.47;;
11711;SDS011;5912;51.034;6.984;2022-07-23T07:05:48;5.85;;;4.38;;
11711;SDS011;5912;51.034;6.984;2022-07-23T07:08:14;6.18;;;4.60;;
11711;SDS011;5912;51.034;6.984;2022-07-23T07:10:40;8.35;;;5.20;;
11711;SDS011;5912;51.034;6.984;2022-07-23T07:13:05;8.02;;;5.72;;
11711;SDS011;5912;51.034;6.984;2022-07-23T07:15:31;5.35;;;4.15;;
11711;SDS011;5912;51.034;6.984;2022-07-23T07:17:56;6.03;;;5.00;;
11711;SDS011;5912;51.034;6.984;2022-07-23T07:20:21;6.03;;;4.43;;
11711;SDS011;5912;51.034;6.984;2022-07-23T07:22:48;4.88;;;3.97;;
11711;SDS011;5912;51.034;6.984;2022-07-23T07:25:13;7.10;;;4.75;;
11711;SDS011;5912;51.034;6.984;2022-07-23T07:27:39;10.00;;;5.25;;
11711;SDS011;5912;51.034;6.984;2022-07-23T07:30:04;4.70;;;3.92;;
11711;SDS011;5912;51.034;6.984;2022-07-23T07:32:30;6.22;;;3.92;;
11711;SDS011;5912;51.034;6.984;2022-07-23T07:34:57;5.00;;;3.22;;
11711;SDS011;5912;51.034;6.984;2022-07-23T07:37:23;4.03;;;3.63;;
11711;SDS011;5912;51.034;6.984;2022-07-23T07:39:48;7.13;;;4.13;;
11711;SDS011;5912;51.034;6.984;2022-07-23T07:42:13;5.15;;;3.70;;
11711;SDS011;5912;51.034;6.984;2022-07-23T07:44:39;5.88;;;4.30;;
11711;SDS011;5912;51.034;6.984;2022-07-23T07:47:04;4.90;;;3.65;;
11711;SDS011;5912;51.034;6.984;2022-07-23T07:49:29;5.65;;;3.50;;
11711;SDS011;5912;51.034;6.984;2022-07-23T07:51:55;6.38;;;4.47;;
11711;SDS011;5912;51.034;6.984;2022-07-23T07:54:20;7.65;;;4.68;;
11711;SDS011;5912;51.034;6.984;2022-07-23T07:56:45;5.85;;;4.20;;
11711;SDS011;5912;51.034;6.984;2022-07-23T07:59:10;5.40;;;4.47;;
11711;SDS011;5912;51.034;6.984;2022-07-23T08:01:36;6.55;;;4.30;;
11711;SDS011;5912;51.034;6.984;2022-07-23T08:04:02;7.70;;;4.85;;
11711;SDS011;5912;51.034;6.984;2022-07-23T08:06:27;6.63;;;5.32;;
11711;SDS011;5912;51.034;6.984;2022-07-23T08:08:52;7.78;;;5.05;;
11711;SDS011;5912;51.034;6.984;2022-07-23T08:11:17;4.75;;;4.10;;
11711;SDS011;5912;51.034;6.984;2022-07-23T08:13:43;4.63;;;4.05;;
11711;SDS011;5912;51.034;6.984;2022-07-23T08:16:09;6.32;;;4.70;;
11711;SDS011;5912;51.034;6.984;2022-07-23T08:18:35;6.85;;;4.57;;
11711;SDS011;5912;51.034;6.984;2022-07-23T08:21:00;7.20;;;3.58;;
11711;SDS011;5912;51.034;6.984;2022-07-23T08:23:26;6.20;;;4.70;;
11711;SDS011;5912;51.034;6.984;2022-07-23T08:25:52;6.43;;;3.78;;
11711;SDS011;5912;51.034;6.984;2022-07-23T08:28:18;6.28;;;4.32;;
11711;SDS011;5912;51.034;6.984;2022-07-23T08:30:43;7.65;;;5.13;;
11711;SDS011;5912;51.034;6.984;2022-07-23T08:33:11;7.95;;;4.70;;
11711;SDS011;5912;51.034;6.984;2022-07-23T08:35:41;4.97;;;4.03;;
11711;SDS011;5912;51.034;6.984;2022-07-23T08:38:16;4.57;;;3.58;;
11711;SDS011;5912;51.034;6.984;2022-07-23T08:40:47;6.25;;;4.40;;
11711;SDS011;5912;51.034;6.984;2022-07-23T08:43:15;5.35;;;3.67;;
11711;SDS011;5912;51.034;6.984;2022-07-23T08:45:44;4.05;;;3.28;;
11711;SDS011;5912;51.034;6.984;2022-07-23T08:48:11;5.53;;;4.43;;
11711;SDS011;5912;51.034;6.984;2022-07-23T08:50:53;5.97;;;4.57;;
11711;SDS011;5912;51.034;6.984;2022-07-23T08:53:20;4.47;;;3.47;;
11711;SDS011;5912;51.034;6.984;2022-07-23T08:55:48;4.55;;;3.28;;
11711;SDS011;5912;51.034;6.984;2022-07-23T08:58:15;5.15;;;3.30;;
11711;SDS011;5912;51.034;6.984;2022-07-23T09:00:41;6.20;;;4.25;;
11711;SDS011;5912;51.034;6.984;2022-07-23T09:03:08;5.13;;;4.32;;
11711;SDS011;5912;51.034;6.984;2022-07-23T09:05:40;5.07;;;3.70;;
11711;SDS011;5912;51.034;6.984;2022-07-23T09:10:43;5.03;;;3.60;;
11711;SDS011;5912;51.034;6.984;2022-07-23T09:15:50;4.78;;;4.13;;
11711;SDS011;5912;51.034;6.984;2022-07-23T09:18:17;5.15;;;4.50;;
11711;SDS011;5912;51.034;6.984;2022-07-23T09:20:46;4.70;;;4.20;;
11711;SDS011;5912;51.034;6.984;2022-07-23T09:23:11;7.97;;;5.78;;
11711;SDS011;5912;51.034;6.984;2022-07-23T09:25:36;9.18;;;6.82;;
11711;SDS011;5912;51.034;6.984;2022-07-23T09:28:02;5.45;;;4.47;;
11711;SDS011;5912;51.034;6.984;2022-07-23T09:30:31;6.85;;;5.38;;
11711;SDS011;5912;51.034;6.984;2022-07-23T09:33:10;7.40;;;4.82;;
11711;SDS011;5912;51.034;6.984;2022-07-23T09:35:43;5.60;;;4.28;;
11711;SDS011;5912;51.034;6.984;2022-07-23T09:38:18;4.60;;;3.83;;
11711;SDS011;5912;51.034;6.984;2022-07-23T09:40:45;5.43;;;4.53;;
11711;SDS011;5912;51.034;6.984;2022-07-23T09:43:12;6.00;;;5.40;;
11711;SDS011;5912;51.034;6.984;2022-07-23T09:45:50;6.05;;;4.97;;
11711;SDS011;5912;51.034;6.984;2022-07-23T09:48:16;5.50;;;4.80;;
11711;SDS011;5912;51.034;6.984;2022-07-23T09:50:42;7.22;;;5.47;;
11711;SDS011;5912;51.034;6.984;2022-07-23T09:53:09;7.15;;;5.05;;
11711;SDS011;5912;51.034;6.984;2022-07-23T09:55:36;6.68;;;5.03;;
11711;SDS011;5912;51.034;6.984;2022-07-23T09:58:03;6.72;;;4.93;;
11711;SDS011;5912;51.034;6.984;2022-07-23T10:00:36;5.32;;;4.45;;
11711;SDS011;5912;51.034;6.984;2022-07-23T10:03:02;5.63;;;4.97;;
11711;SDS011;5912;51.034;6.984;2022-07-23T10:05:30;6.07;;;4.85;;
11711;SDS011;5912;51.034;6.984;2022-07-23T10:07:55;4.55;;;3.92;;
11711;SDS011;5912;51.034;6.984;2022-07-23T10:10:22;4.35;;;3.92;;
11711;SDS011;5912;51.034;6.984;2022-07-23T10:12:51;5.50;;;4.65;;
11711;SDS011;5912;51.034;6.984;2022-07-23T10:15:36;7.68;;;4.78;;
11711;SDS011;5912;51.034;6.984;2022-07-23T10:18:04;5.55;;;4.53;;
11711;SDS011;5912;51.034;6.984;2022-07-23T10:20:30;8.00;;;4.45;;
11711;SDS011;5912;51.034;6.984;2022-07-23T10:25:36;5.05;;;3.78;;
11711;SDS011;5912;51.034;6.984;2022-07-23T10:36:47;3.50;;;3.20;;
11711;SDS011;5912;51.034;6.984;2022-07-23T10:39:19;3.90;;;3.20;;
11711;SDS011;5912;51.034;6.984;2022-07-23T10:42:07;4.75;;;3.75;;
11711;SDS011;5912;51.034;6.984;2022-07-23T10:44:40;4.32;;;3.85;;
11711;SDS011;5912;51.034;6.984;2022-07-23T10:47:09;6.78;;;4.53;;
11711;SDS011;5912;51.034;6.984;2022-07-23T10:49:38;4.22;;;3.60;;
11711;SDS011;5912;51.034;6.984;2022-07-23T10:54:42;3.90;;;3.22;;
11711;SDS011;5912;51.034;6.984;2022-07-23T10:57:19;3.55;;;3.17;;
11711;SDS011;5912;51.034;6.984;2022-07-23T11:02:30;3.30;;;3.00;;
11711;SDS011;5912;51.034;6.984;2022-07-23T11:04:59;4.10;;;2.85;;
11711;SDS011;5912;51.034;6.984;2022-07-23T11:07:31;5.72;;;4.07;;
11711;SDS011;5912;51.034;6.984;2022-07-23T11:09:56;3.50;;;3.20;;
11711;SDS011;5912;51.034;6.984;2022-07-23T11:17:30;3.80;;;3.15;;
11711;SDS011;5912;51.034;6.984;2022-07-23T11:22:34;4.43;;;3.38;;
11711;SDS011;5912;51.034;6.984;2022-07-23T11:25:04;4.03;;;3.63;;
11711;SDS011;5912;51.034;6.984;2022-07-23T11:30:46;3.85;;;3.40;;
11711;SDS011;5912;51.034;6.984;2022-07-23T11:35:44;6.93;;;3.60;;
11711;SDS011;5912;51.034;6.984;2022-07-23T11:38:18;4.22;;;3.22;;
11711;SDS011;5912;51.034;6.984;2022-07-23T11:40:46;3.75;;;3.40;;
11711;SDS011;5912;51.034;6.984;2022-07-23T11:43:13;3.60;;;3.08;;
11711;SDS011;5912;51.034;6.984;2022-07-23T11:45:40;3.95;;;3.50;;
11711;SDS011;5912;51.034;6.984;2022-07-23T11:48:08;3.28;;;2.97;;
11711;SDS011;5912;51.034;6.984;2022-07-23T11:50:40;4.90;;;2.92;;
11711;SDS011;5912;51.034;6.984;2022-07-23T11:53:05;5.03;;;3.60;;
11711;SDS011;5912;51.034;6.984;2022-07-23T11:55:31;4.40;;;3.25;;
11711;SDS011;5912;51.034;6.984;2022-07-23T11:57:56;3.38;;;2.70;;
11711;SDS011;5912;51.034;6.984;2022-07-23T12:00:23;3.60;;;2.70;;
11711;SDS011;5912;51.034;6.984;2022-07-23T12:02:52;3.08;;;2.80;;
11711;SDS011;5912;51.034;6.984;2022-07-23T12:05:23;5.10;;;3.15;;
11711;SDS011;5912;51.034;6.984;2022-07-23T12:07:51;3.47;;;2.40;;
11711;SDS011;5912;51.034;6.984;2022-07-23T12:12:45;4.18;;;3.13;;
11711;SDS011;5912;51.034;6.984;2022-07-23T12:15:14;5.57;;;2.47;;
11711;SDS011;5912;51.034;6.984;2022-07-23T12:17:41;3.63;;;2.42;;
11711;SDS011;5912;51.034;6.984;2022-07-23T12:20:09;2.80;;;2.10;;
11711;SDS011;5912;51.034;6.984;2022-07-23T12:22:41;3.78;;;1.92;;
11711;SDS011;5912;51.034;6.984;2022-07-23T12:25:10;3.30;;;2.00;;
11711;SDS011;5912;51.034;6.984;2022-07-23T12:27:41;2.80;;;2.15;;
11711;SDS011;5912;51.034;6.984;2022-07-23T12:32:47;2.45;;;1.85;;
11711;SDS011;5912;51.034;6.984;2022-07-23T12:35:14;2.72;;;1.95;;
11711;SDS011;5912;51.034;6.984;2022-07-23T12:37:40;2.50;;;2.03;;
11711;SDS011;5912;51.034;6.984;2022-07-23T12:42:48;2.92;;;2.03;;
11711;SDS011;5912;51.034;6.984;2022-07-23T12:45:18;3.00;;;2.10;;
11711;SDS011;5912;51.034;6.984;2022-07-23T12:48:18;3.28;;;2.13;;
11711;SDS011;5912;51.034;6.984;2022-07-23T12:50:55;2.25;;;2.05;;
11711;SDS011;5912;51.034;6.984;2022-07-23T12:53:24;4.03;;;2.42;;
11711;SDS011;5912;51.034;6.984;2022-07-23T12:55:50;3.05;;;2.00;;
11711;SDS011;5912;51.034;6.984;2022-07-23T12:58:22;3.70;;;2.15;;
11711;SDS011;5912;51.034;6.984;2022-07-23T13:03:32;4.00;;;2.38;;
11711;SDS011;5912;51.034;6.984;2022-07-23T13:05:59;4.13;;;2.65;;
11711;SDS011;5912;51.034;6.984;2022-07-23T13:08:27;4.13;;;2.30;;
11711;SDS011;5912;51.034;6.984;2022-07-23T13:10:54;3.70;;;2.63;;
11711;SDS011;5912;51.034;6.984;2022-07-23T13:13:21;3.60;;;2.50;;
11711;SDS011;5912;51.034;6.984;2022-07-23T13:15:48;3.33;;;2.30;;
11711;SDS011;5912;51.034;6.984;2022-07-23T13:18:13;2.67;;;2.05;;
11711;SDS011;5912;51.034;6.984;2022-07-23T13:20:39;2.58;;;2.38;;
11711;SDS011;5912;51.034;6.984;2022-07-23T13:23:07;3.05;;;2.13;;
11711;SDS011;5912;51.034;6.984;2022-07-23T13:25:32;2.78;;;2.10;;
11711;SDS011;5912;51.034;6.984;2022-07-23T13:27:58;2.03;;;1.70;;
11711;SDS011;5912;51.034;6.984;2022-07-23T13:30:23;1.80;;;1.67;;
11711;SDS011;5912;51.034;6.984;2022-07-23T13:32:49;2.50;;;1.70;;
11711;SDS011;5912;51.034;6.984;2022-07-23T13:35:14;2.63;;;1.63;;
11711;SDS011;5912;51.034;6.984;2022-07-23T13:37:39;2.40;;;1.80;;
11711;SDS011;5912;51.034;6.984;2022-07-23T13:40:05;2.65;;;1.30;;
11711;SDS011;5912;51.034;6.984;2022-07-23T13:42:31;2.55;;;1.63;;
11711;SDS011;5912;51.034;6.984;2022-07-23T13:44:56;2.63;;;1.67;;
11711;SDS011;5912;51.034;6.984;2022-07-23T13:47:21;1.75;;;1.40;;
11711;SDS011;5912;51.034;6.984;2022-07-23T13:49:47;1.80;;;1.70;;
11711;SDS011;5912;51.034;6.984;2022-07-23T13:52:12;1.98;;;1.40;;
11711;SDS011;5912;51.034;6.984;2022-07-23T13:54:37;2.15;;;1.60;;
11711;SDS011;5912;51.034;6.984;2022-07-23T13:57:03;1.35;;;1.20;;
11711;SDS011;5912;51.034;6.984;2022-07-23T13:59:28;2.28;;;1.40;;
11711;SDS011;5912;51.034;6.984;2022-07-23T14:01:54;3.15;;;1.75;;
11711;SDS011;5912;51.034;6.984;2022-07-23T14:04:20;2.22;;;1.70;;
11711;SDS011;5912;51.034;6.984;2022-07-23T14:06:46;1.40;;;1.25;;
11711;SDS011;5912;51.034;6.984;2022-07-23T14:09:11;1.50;;;1.30;;
11711;SDS011;5912;51.034;6.984;2022-07-23T14:11:36;1.52;;;1.38;;
11711;SDS011;5912;51.034;6.984;2022-07-23T14:14:03;1.92;;;1.38;;
11711;SDS011;5912;51.034;6.984;2022-07-23T14:16:29;2.30;;;1.38;;
11711;SDS011;5912;51.034;6.984;2022-07-23T14:18:54;1.52;;;1.20;;
11711;SDS011;5912;51.034;6.984;2022-07-23T14:21:19;1.58;;;1.30;;
11711;SDS011;5912;51.034;6.984;2022-07-23T14:23:45;2.97;;;1.33;;
11711;SDS011;5912;51.034;6.984;2022-07-23T14:26:10;1.90;;;1.30;;
11711;SDS011;5912;51.034;6.984;2022-07-23T14:28:35;1.88;;;1.50;;
11711;SDS011;5912;51.034;6.984;2022-07-23T14:31:01;2.20;;;1.40;;
11711;SDS011;5912;51.034;6.984;2022-07-23T14:33:26;1.58;;;1.40;;
11711;SDS011;5912;51.034;6.984;2022-07-23T14:35:51;3.20;;;1.40;;
11711;SDS011;5912;51.034;6.984;2022-07-23T14:38:17;1.75;;;1.40;;
11711;SDS011;5912;51.034;6.984;2022-07-23T14:40:42;1.98;;;1.40;;
11711;SDS011;5912;51.034;6.984;2022-07-23T14:43:08;2.05;;;1.50;;
11711;SDS011;5912;51.034;6.984;2022-07-23T14:45:34;2.30;;;1.40;;
11711;SDS011;5912;51.034;6.984;2022-07-23T14:48:00;1.60;;;1.42;;
11711;SDS011;5912;51.034;6.984;2022-07-23T14:50:27;3.10;;;1.63;;
11711;SDS011;5912;51.034;6.984;2022-07-23T14:52:52;4.85;;;1.90;;
11711;SDS011;5912;51.034;6.984;2022-07-23T14:55:18;2.60;;;1.55;;
11711;SDS011;5912;51.034;6.984;2022-07-23T14:57:43;3.25;;;1.85;;
11711;SDS011;5912;51.034;6.984;2022-07-23T15:00:09;2.10;;;1.90;;
11711;SDS011;5912;51.034;6.984;2022-07-23T15:02:34;2.88;;;1.60;;
11711;SDS011;5912;51.034;6.984;2022-07-23T15:05:00;1.95;;;1.38;;
11711;SDS011;5912;51.034;6.984;2022-07-23T15:07:26;2.05;;;1.63;;
11711;SDS011;5912;51.034;6.984;2022-07-23T15:09:52;2.97;;;2.70;;
11711;SDS011;5912;51.034;6.984;2022-07-23T15:12:17;4.18;;;3.78;;
11711;SDS011;5912;51.034;6.984;2022-07-23T15:14:43;4.03;;;3.60;;
11711;SDS011;5912;51.034;6.984;2022-07-23T15:17:08;6.63;;;5.07;;
11711;SDS011;5912;51.034;6.984;2022-07-23T15:19:34;3.60;;;1.95;;
11711;SDS011;5912;51.034;6.984;2022-07-23T15:21:59;2.83;;;2.58;;
11711;SDS011;5912;51.034;6.984;2022-07-23T15:24:25;1.50;;;1.30;;
11711;SDS011;5912;51.034;6.984;2022-07-23T15:26:50;1.77;;;1.42;;
11711;SDS011;5912;51.034;6.984;2022-07-23T15:29:16;1.58;;;1.40;;
11711;SDS011;5912;51.034;6.984;2022-07-23T15:31:41;1.60;;;1.30;;
11711;SDS011;5912;51.034;6.984;2022-07-23T15:34:06;7.85;;;1.67;;